KATW/ATW METAR and TAF weather

Enter ICAO airport designator
Station Type Date Time Source
KATW METAR 2021/05/10 01:45 UTC NOAA

KATW 100145Z 08005KT 10SM BKN047 08/00 A3005


Station Type Date Time Source
KATW Decoded METAR 2021/05/10 01:45 UTC NOAA

Appleton / Outagamie, WI, United States (KATW) 44-15N 088-31W
May 09, 2021 - 09:45 PM EDT / 2021.05.10 0145 UTC
Wind: from the E (080 degrees) at 6 MPH (5 KT):0
Visibility: 10 mile(s):0
Sky conditions: mostly cloudy
Temperature: 46 F (8 C)
Dew Point: 32 F (0 C)
Relative Humidity: 56%
Pressure (altimeter): 30.05 in. Hg (1017 hPa)
ob: KATW 100145Z 08005KT 10SM BKN047 08/00 A3005
cycle: 2

Station Type Date Time Source
KATW TAF 2021/05/09 22:06 UTC NOAA

TAF
AMD KATW 092205Z 0922/1018 05008KT P6SM BKN060
FM100200 03005KT P6SM SCT050
FM100700 35006KT P6SM SCT250
FM101600 35008KT P6SM SCT050

Example: see airport list